Newark, New Jersey
Current Conditions -  °F | °C
As of 10:51 AM on Wednesday 22 Oct 2014 (Local Time) from KEWR Reporting Station
Overcast Overcast  
Wind Chill: 12°   Ceiling: 1500
Heat Index: 12°   Visibility: 10mi
Dew Point: 11°   Wind: 16mph
Humidity: 93%   Direction: 10°N
Pressure: 29.92"   Gusts: NA
Location:  40.73°N, 74.17°W
Report Text: KEWR 221451Z 01014KT 10SM FEW010 BKN015 OVC025 12/11 A2992 RMK AO2 RAE24 SLP132 CIG 014V018 P0000 60009 T01220111 50002
Loading
Personal Weather Stations






























Interactive Weather Map New forecast layout! Learn more

10-Day Weather Forecast

Advertisements
Track Severe Weather on mobile